Country Club Heights, Kentucky
Current Conditions -  °F | °C
As of 7:15 AM on Sunday 23 Nov 2014 (Local Time) from KFGX Reporting Station
Broken Clouds Broken Clouds  
Wind Chill: 46°   Ceiling: 4200
Heat Index: 49°   Visibility: 10mi
Dew Point: 36°   Wind: 8mph
Humidity: 61%   Direction: 160°SSE
Pressure: 30.03"   Gusts: NA
Location:  38.585°N, 83.7789°W
Report Text: KFGX 231215Z AUTO 16007KT 10SM BKN042 BKN060 BKN110 10/02 A3003 RMK AO2 T00950023
Loading
Personal Weather Stations






























Interactive Weather Map New forecast layout! Learn more

10-Day Weather Forecast

Advertisements
Track Severe Weather on mobile